シドニー の空港の天気 - METARとTAF

シドニー国際空港 ( YSSY / SYD ) - オーストラリア ニューサウスウェールズ州、Mascot
飛行場実況気象(Metar)
観測時間01/19 22:00 AEDT (01/19 11:00 UTC)
風向・風速南南東 6m/s
視程10km以上
天気現象
少しの雲 雲底高度 490m
全天の8割程度の雲 雲底高度 610m
全天の8割程度の雲 雲底高度 910m
気温22℃
湿度78%
気圧1021hPa
METARYSSY 191100Z 16011KT 9999 FEW016 BKN020 BKN030 22/18 Q1021 NOSIG
過去の天気等 Google飛行場航空写真 Wunderground天気予報

過去48時間のMETAR

飛行場予報(TAF)
発表時間: 1/19 16:12 AEDT (1/19 05:12 UTC)
予報対象時間: 19日17時 AEDT ~ 20日23時 AEDT
風向・風速南 8m/s
視程10km以上
少しの雲 雲底高度 300m
全天の8割程度の雲 雲底高度 550m
19日20時 AEDT から
風向・風速南南西 4m/s
視程10km以上
天気現象弱い霧雨
全天の4割程度の雲 雲底高度 300m
全天の8割程度の雲 雲底高度 550m
20日9時 AEDT から
風向・風速南 4m/s
視程10km以上
全天の8割程度の雲 雲底高度 610m
20日11時 AEDT から
風向・風速南東 6m/s
視程10km以上
全天の8割程度の雲 雲底高度 760m
20日20時 AEDT から
風向・風速東 4m/s
視程10km以上
天気現象弱い霧雨
全天の8割程度の雲 雲底高度 550m
TAF AMD YSSY 190512Z 1906/2012 17015KT 9999 FEW010 BKN018
FM190900 20008KT 9999 -DZ SCT010 BKN018
FM192200 18008KT 9999 BKN020
FM200000 14012KT 9999 BKN025
FM200900 10008KT 9999 -DZ BKN018